sensor_id;sensor_type;location;lat;lon;timestamp;pressure;altitude;pressure_sealevel;temperature;humidity
9460;BME280;4768;42.664;23.240;2023-04-15T00:02:12;-9576.53;;;5.84;100.00
9460;BME280;4768;42.664;23.240;2023-04-15T00:04:39;-9575.97;;;5.82;100.00
9460;BME280;4768;42.664;23.240;2023-04-15T00:07:05;-9576.25;;;5.83;100.00
9460;BME280;4768;42.664;23.240;2023-04-15T00:09:32;-9576.41;;;5.84;100.00
9460;BME280;4768;42.664;23.240;2023-04-15T00:11:59;-9576.25;;;5.83;100.00
9460;BME280;4768;42.664;23.240;2023-04-15T00:14:27;-9577.25;;;5.87;100.00
9460;BME280;4768;42.664;23.240;2023-04-15T00:16:55;-9580.22;;;5.97;100.00
9460;BME280;4768;42.664;23.240;2023-04-15T00:19:21;-9579.22;;;5.94;100.00
9460;BME280;4768;42.664;23.240;2023-04-15T00:21:48;-9580.78;;;5.99;100.00
9460;BME280;4768;42.664;23.240;2023-04-15T00:24:15;-9579.94;;;5.96;100.00
9460;BME280;4768;42.664;23.240;2023-04-15T00:26:42;-9581.63;;;6.02;100.00
9460;BME280;4768;42.664;23.240;2023-04-15T00:29:09;-9582.78;;;6.06;100.00
9460;BME280;4768;42.664;23.240;2023-04-15T00:31:37;-9586.72;;;6.20;100.00
9460;BME280;4768;42.664;23.240;2023-04-15T00:34:04;-9590.97;;;6.35;100.00
9460;BME280;4768;42.664;23.240;2023-04-15T00:36:30;-9587.88;;;6.24;100.00
9460;BME280;4768;42.664;23.240;2023-04-15T00:38:58;-9587.44;;;6.23;100.00
9460;BME280;4768;42.664;23.240;2023-04-15T00:41:25;-9589.00;;;6.28;100.00
9460;BME280;4768;42.664;23.240;2023-04-15T00:43:51;-9591.41;;;6.36;100.00
9460;BME280;4768;42.664;23.240;2023-04-15T00:46:19;-9594.22;;;6.46;100.00
9460;BME280;4768;42.664;23.240;2023-04-15T00:48:48;-9595.66;;;6.51;100.00
9460;BME280;4768;42.664;23.240;2023-04-15T00:51:16;-9601.03;;;6.70;100.00
9460;BME280;4768;42.664;23.240;2023-04-15T00:53:43;-9603.72;;;6.79;100.00
9460;BME280;4768;42.664;23.240;2023-04-15T00:56:09;-9604.69;;;6.83;100.00
9460;BME280;4768;42.664;23.240;2023-04-15T00:58:36;-9605.00;;;6.84;100.00
9460;BME280;4768;42.664;23.240;2023-04-15T01:01:03;-9602.88;;;6.76;100.00
9460;BME280;4768;42.664;23.240;2023-04-15T01:03:30;-9604.13;;;6.81;100.00
9460;BME280;4768;42.664;23.240;2023-04-15T01:05:59;-9597.91;;;6.59;100.00
9460;BME280;4768;42.664;23.240;2023-04-15T01:08:26;-9590.41;;;6.33;100.00
9460;BME280;4768;42.664;23.240;2023-04-15T01:10:53;-9587.72;;;6.24;100.00
9460;BME280;4768;42.664;23.240;2023-04-15T01:13:20;-9584.88;;;6.14;100.00
9460;BME280;4768;42.664;23.240;2023-04-15T01:15:48;-9583.91;;;6.10;100.00
9460;BME280;4768;42.664;23.240;2023-04-15T01:18:15;-9583.91;;;6.10;100.00
9460;BME280;4768;42.664;23.240;2023-04-15T01:20:42;-9582.91;;;6.07;100.00
9460;BME280;4768;42.664;23.240;2023-04-15T01:23:10;-9581.34;;;6.01;100.00
9460;BME280;4768;42.664;23.240;2023-04-15T01:25:39;-9579.94;;;5.96;100.00
9460;BME280;4768;42.664;23.240;2023-04-15T01:28:07;-9574.41;;;5.77;100.00
9460;BME280;4768;42.664;23.240;2023-04-15T01:30:35;-9575.28;;;5.80;100.00
9460;BME280;4768;42.664;23.240;2023-04-15T01:33:02;-9574.56;;;5.78;100.00
9460;BME280;4768;42.664;23.240;2023-04-15T01:35:29;-9573.84;;;5.75;100.00
9460;BME280;4768;42.664;23.240;2023-04-15T01:38:02;-9573.56;;;5.74;100.00
9460;BME280;4768;42.664;23.240;2023-04-15T01:40:30;-9577.25;;;5.87;100.00
9460;BME280;4768;42.664;23.240;2023-04-15T01:42:59;-9579.38;;;5.94;100.00
9460;BME280;4768;42.664;23.240;2023-04-15T01:45:26;-9580.66;;;5.99;100.00
9460;BME280;4768;42.664;23.240;2023-04-15T01:47:53;-9578.53;;;5.91;100.00
9460;BME280;4768;42.664;23.240;2023-04-15T01:50:20;-9575.97;;;5.82;100.00
9460;BME280;4768;42.664;23.240;2023-04-15T01:52:47;-9575.84;;;5.82;100.00
9460;BME280;4768;42.664;23.240;2023-04-15T01:55:13;-9572.88;;;5.72;100.00
9460;BME280;4768;42.664;23.240;2023-04-15T01:57:40;-9569.19;;;5.59;100.00
9460;BME280;4768;42.664;23.240;2023-04-15T02:00:09;-9567.91;;;5.54;100.00
9460;BME280;4768;42.664;23.240;2023-04-15T02:02:37;-9566.50;;;5.49;100.00
9460;BME280;4768;42.664;23.240;2023-04-15T02:05:04;-9565.94;;;5.47;100.00
9460;BME280;4768;42.664;23.240;2023-04-15T02:07:31;-9560.00;;;5.27;100.00
9460;BME280;4768;42.664;23.240;2023-04-15T02:09:57;-9560.84;;;5.29;100.00
9460;BME280;4768;42.664;23.240;2023-04-15T02:12:24;-9562.25;;;5.34;100.00
9460;BME280;4768;42.664;23.240;2023-04-15T02:14:51;-9559.72;;;5.26;100.00
9460;BME280;4768;42.664;23.240;2023-04-15T02:17:19;-9560.41;;;5.28;100.00
9460;BME280;4768;42.664;23.240;2023-04-15T02:19:46;-9565.66;;;5.46;100.00
9460;BME280;4768;42.664;23.240;2023-04-15T02:22:13;-9572.28;;;5.70;100.00
9460;BME280;4768;42.664;23.240;2023-04-15T02:24:43;-9559.28;;;5.24;100.00
9460;BME280;4768;42.664;23.240;2023-04-15T02:27:10;-9562.97;;;5.37;100.00
9460;BME280;4768;42.664;23.240;2023-04-15T02:29:36;-9562.13;;;5.34;100.00
9460;BME280;4768;42.664;23.240;2023-04-15T02:32:04;-9560.84;;;5.29;100.00
9460;BME280;4768;42.664;23.240;2023-04-15T02:34:32;-9557.03;;;5.16;100.00
9460;BME280;4768;42.664;23.240;2023-04-15T02:37:00;-9559.16;;;5.24;100.00
9460;BME280;4768;42.664;23.240;2023-04-15T02:39:28;-9564.53;;;5.42;100.00
9460;BME280;4768;42.664;23.240;2023-04-15T02:41:54;-9560.13;;;5.27;100.00
9460;BME280;4768;42.664;23.240;2023-04-15T02:44:23;-9554.63;;;5.08;100.00
9460;BME280;4768;42.664;23.240;2023-04-15T02:46:50;-9549.94;;;4.91;100.00
9460;BME280;4768;42.664;23.240;2023-04-15T02:49:19;-9553.91;;;5.05;100.00
9460;BME280;4768;42.664;23.240;2023-04-15T02:51:47;-9561.69;;;5.32;100.00
9460;BME280;4768;42.664;23.240;2023-04-15T02:54:14;-9562.13;;;5.34;100.00
9460;BME280;4768;42.664;23.240;2023-04-15T02:56:41;-9562.53;;;5.35;100.00
9460;BME280;4768;42.664;23.240;2023-04-15T02:59:07;-9563.09;;;5.37;100.00
9460;BME280;4768;42.664;23.240;2023-04-15T03:01:34;-9542.88;;;4.67;100.00
9460;BME280;4768;42.664;23.240;2023-04-15T03:04:01;-9540.34;;;4.58;100.00
9460;BME280;4768;42.664;23.240;2023-04-15T03:06:27;-9536.53;;;4.44;100.00
9460;BME280;4768;42.664;23.240;2023-04-15T03:08:55;-9535.53;;;4.41;100.00
9460;BME280;4768;42.664;23.240;2023-04-15T03:11:24;-9534.84;;;4.38;100.00
9460;BME280;4768;42.664;23.240;2023-04-15T03:13:51;-9536.25;;;4.43;100.00
9460;BME280;4768;42.664;23.240;2023-04-15T03:16:18;-9536.94;;;4.46;100.00
9460;BME280;4768;42.664;23.240;2023-04-15T03:18:45;-9537.66;;;4.48;100.00
9460;BME280;4768;42.664;23.240;2023-04-15T03:21:12;-9535.25;;;4.40;100.00
9460;BME280;4768;42.664;23.240;2023-04-15T03:23:38;-9537.53;;;4.48;100.00
9460;BME280;4768;42.664;23.240;2023-04-15T03:26:07;-9531.31;;;4.26;100.00
9460;BME280;4768;42.664;23.240;2023-04-15T03:28:33;-9526.06;;;4.08;100.00
9460;BME280;4768;42.664;23.240;2023-04-15T03:31:00;-9524.09;;;4.01;100.00
9460;BME280;4768;42.664;23.240;2023-04-15T03:33:27;-9521.41;;;3.91;100.00
9460;BME280;4768;42.664;23.240;2023-04-15T03:35:53;-9525.94;;;4.07;100.00
9460;BME280;4768;42.664;23.240;2023-04-15T03:38:20;-9529.47;;;4.20;100.00
9460;BME280;4768;42.664;23.240;2023-04-15T03:40:47;-9536.66;;;4.45;100.00
9460;BME280;4768;42.664;23.240;2023-04-15T03:43:15;-9542.19;;;4.64;100.00
9460;BME280;4768;42.664;23.240;2023-04-15T03:45:42;-9533.84;;;4.35;100.00
9460;BME280;4768;42.664;23.240;2023-04-15T03:48:08;-9528.47;;;4.16;100.00
9460;BME280;4768;42.664;23.240;2023-04-15T03:50:35;-9526.50;;;4.09;100.00
9460;BME280;4768;42.664;23.240;2023-04-15T03:53:02;-9525.94;;;4.07;100.00
9460;BME280;4768;42.664;23.240;2023-04-15T03:55:29;-9522.69;;;3.96;100.00
9460;BME280;4768;42.664;23.240;2023-04-15T03:57:55;-9521.97;;;3.93;100.00
9460;BME280;4768;42.664;23.240;2023-04-15T04:00:24;-9525.22;;;4.05;100.00
9460;BME280;4768;42.664;23.240;2023-04-15T04:02:51;-9528.06;;;4.15;100.00
9460;BME280;4768;42.664;23.240;2023-04-15T04:05:17;-9531.00;;;4.25;100.00
9460;BME280;4768;42.664;23.240;2023-04-15T04:07:44;-9536.66;;;4.45;100.00
9460;BME280;4768;42.664;23.240;2023-04-15T04:10:12;-9539.22;;;4.54;100.00
9460;BME280;4768;42.664;23.240;2023-04-15T04:12:38;-9536.66;;;4.45;100.00
9460;BME280;4768;42.664;23.240;2023-04-15T04:15:06;-9536.81;;;4.45;100.00
9460;BME280;4768;42.664;23.240;2023-04-15T04:17:35;-9547.28;;;4.82;100.00
9460;BME280;4768;42.664;23.240;2023-04-15T04:20:01;-9548.69;;;4.87;100.00
9460;BME280;4768;42.664;23.240;2023-04-15T04:22:28;-9560.13;;;5.27;100.00
9460;BME280;4768;42.664;23.240;2023-04-15T04:24:55;-9564.78;;;5.43;100.00
9460;BME280;4768;42.664;23.240;2023-04-15T04:27:23;-9573.16;;;5.73;100.00
9460;BME280;4768;42.664;23.240;2023-04-15T04:29:50;-9577.13;;;5.86;100.00
9460;BME280;4768;42.664;23.240;2023-04-15T04:32:17;-9576.13;;;5.83;100.00
9460;BME280;4768;42.664;23.240;2023-04-15T04:34:45;-9588.28;;;6.25;100.00
9460;BME280;4768;42.664;23.240;2023-04-15T04:37:12;-9592.81;;;6.41;100.00
9460;BME280;4768;42.664;23.240;2023-04-15T04:39:39;-9609.53;;;7.00;100.00
9460;BME280;4768;42.664;23.240;2023-04-15T04:42:06;-9612.22;;;7.09;100.00
9460;BME280;4768;42.664;23.240;2023-04-15T04:44:32;-9635.84;;;7.92;100.00
9460;BME280;4768;42.664;23.240;2023-04-15T04:46:59;-9632.75;;;7.81;100.00
9460;BME280;4768;42.664;23.240;2023-04-15T04:49:26;-9642.09;;;8.14;100.00
9460;BME280;4768;42.664;23.240;2023-04-15T04:51:54;-9621.41;;;7.41;100.00
9460;BME280;4768;42.664;23.240;2023-04-15T04:54:21;-9625.09;;;7.54;100.00
9460;BME280;4768;42.664;23.240;2023-04-15T04:56:48;-9629.47;;;7.69;100.00
9460;BME280;4768;42.664;23.240;2023-04-15T04:59:15;-9624.53;;;7.52;100.00
9460;BME280;4768;42.664;23.240;2023-04-15T05:01:41;-9618.00;;;7.29;100.00
9460;BME280;4768;42.664;23.240;2023-04-15T05:04:08;-9622.41;;;7.45;100.00
9460;BME280;4768;42.664;23.240;2023-04-15T05:06:35;-9631.59;;;7.77;100.00
9460;BME280;4768;42.664;23.240;2023-04-15T05:09:03;-9612.63;;;7.11;100.00
9460;BME280;4768;42.664;23.240;2023-04-15T05:11:30;-9612.78;;;7.11;100.00
9460;BME280;4768;42.664;23.240;2023-04-15T05:13:57;-9621.69;;;7.42;100.00
9460;BME280;4768;42.664;23.240;2023-04-15T05:16:24;-9627.94;;;7.64;100.00
9460;BME280;4768;42.664;23.240;2023-04-15T05:18:51;-9621.41;;;7.41;100.00
9460;BME280;4768;42.664;23.240;2023-04-15T05:21:18;-9611.91;;;7.08;100.00
9460;BME280;4768;42.664;23.240;2023-04-15T05:23:44;-9605.41;;;6.85;100.00
9460;BME280;4768;42.664;23.240;2023-04-15T05:26:13;-9611.06;;;7.05;100.00
9460;BME280;4768;42.664;23.240;2023-04-15T05:28:39;-9615.75;;;7.21;100.00
9460;BME280;4768;42.664;23.240;2023-04-15T05:31:06;-9604.69;;;6.83;100.00
9460;BME280;4768;42.664;23.240;2023-04-15T05:33:33;-9606.13;;;6.88;100.00
9460;BME280;4768;42.664;23.240;2023-04-15T05:36:00;-9610.78;;;7.04;100.00
9460;BME280;4768;42.664;23.240;2023-04-15T05:38:27;-9627.50;;;7.63;100.00
9460;BME280;4768;42.664;23.240;2023-04-15T05:40:53;-9649.63;;;8.40;100.00
9460;BME280;4768;42.664;23.240;2023-04-15T05:43:21;-9664.91;;;8.93;100.00
9460;BME280;4768;42.664;23.240;2023-04-15T05:45:48;-9664.50;;;8.92;100.00
9460;BME280;4768;42.664;23.240;2023-04-15T05:48:15;-9653.56;;;8.54;100.00
9460;BME280;4768;42.664;23.240;2023-04-15T05:50:41;-9663.06;;;8.87;100.00
9460;BME280;4768;42.664;23.240;2023-04-15T05:53:08;-9681.50;;;9.51;100.00
9460;BME280;4768;42.664;23.240;2023-04-15T05:55:36;-9658.97;;;8.72;100.00
9460;BME280;4768;42.664;23.240;2023-04-15T05:58:02;-9662.09;;;8.83;100.00
9460;BME280;4768;42.664;23.240;2023-04-15T06:00:30;-9668.88;;;9.07;100.00
9460;BME280;4768;42.664;23.240;2023-04-15T06:02:57;-9687.19;;;9.71;100.00
9460;BME280;4768;42.664;23.240;2023-04-15T06:05:24;-9714.00;;;10.64;100.00
9460;BME280;4768;42.664;23.240;2023-04-15T06:07:52;-9718.41;;;10.80;100.00
9460;BME280;4768;42.664;23.240;2023-04-15T06:10:18;-9737.72;;;11.47;100.00
9460;BME280;4768;42.664;23.240;2023-04-15T06:12:45;-9716.84;;;10.74;100.00
9460;BME280;4768;42.664;23.240;2023-04-15T06:15:12;-9730.19;;;11.21;100.00
9460;BME280;4768;42.664;23.240;2023-04-15T06:17:40;-9711.88;;;10.57;100.00
9460;BME280;4768;42.664;23.240;2023-04-15T06:20:07;-9691.16;;;9.85;100.00
9460;BME280;4768;42.664;23.240;2023-04-15T06:22:35;-9693.56;;;9.93;100.00
9460;BME280;4768;42.664;23.240;2023-04-15T06:25:03;-9697.25;;;10.06;100.00
9460;BME280;4768;42.664;23.240;2023-04-15T06:27:29;-9706.75;;;10.39;100.00
9460;BME280;4768;42.664;23.240;2023-04-15T06:29:56;-9705.91;;;10.36;100.00
9460;BME280;4768;42.664;23.240;2023-04-15T06:32:23;-9710.16;;;10.51;100.00
9460;BME280;4768;42.664;23.240;2023-04-15T06:34:51;-9696.25;;;10.03;100.00
9460;BME280;4768;42.664;23.240;2023-04-15T06:37:18;-9697.25;;;10.06;100.00
9460;BME280;4768;42.664;23.240;2023-04-15T06:39:45;-9699.81;;;10.15;100.00
9460;BME280;4768;42.664;23.240;2023-04-15T06:42:12;-9708.03;;;10.44;100.00
9460;BME280;4768;42.664;23.240;2023-04-15T06:44:40;-9705.34;;;10.34;100.00
9460;BME280;4768;42.664;23.240;2023-04-15T06:47:06;-9696.84;;;10.05;100.00
9460;BME280;4768;42.664;23.240;2023-04-15T06:49:34;-9703.34;;;10.27;100.00
9460;BME280;4768;42.664;23.240;2023-04-15T06:52:02;-9691.44;;;9.86;100.00
9460;BME280;4768;42.664;23.240;2023-04-15T06:54:29;-9706.06;;;10.37;100.00
9460;BME280;4768;42.664;23.240;2023-04-15T06:56:56;-9717.97;;;10.78;100.00
9460;BME280;4768;42.664;23.240;2023-04-15T06:59:23;-9719.81;;;10.85;100.00
9460;BME280;4768;42.664;23.240;2023-04-15T07:01:49;-9725.78;;;11.06;100.00
9460;BME280;4768;42.664;23.240;2023-04-15T07:04:16;-9731.47;;;11.25;100.00
9460;BME280;4768;42.664;23.240;2023-04-15T07:06:43;-3580.75;;;11.69;100.00
9460;BME280;4768;42.664;23.240;2023-04-15T07:09:11;33308.38;;;12.28;100.00
9460;BME280;4768;42.664;23.240;2023-04-15T07:11:38;89228.25;;;12.08;100.00
9460;BME280;4768;42.664;23.240;2023-04-15T07:14:05;111565.56;;;12.46;100.00
9460;BME280;4768;42.664;23.240;2023-04-15T07:16:32;170057.59;;;11.74;100.00
9460;BME280;4768;42.664;23.240;2023-04-15T07:18:58;170058.97;;;11.74;100.00
9460;BME280;4768;42.664;23.240;2023-04-15T07:21:25;170127.00;;;12.00;100.00
9460;BME280;4768;42.664;23.240;2023-04-15T07:23:53;170253.72;;;12.47;100.00
9460;BME280;4768;42.664;23.240;2023-04-15T07:26:21;170153.69;;;12.09;100.00
9460;BME280;4768;42.664;23.240;2023-04-15T07:28:49;170257.75;;;12.48;100.00
9460;BME280;4768;42.664;23.240;2023-04-15T07:31:15;170301.75;;;12.64;100.00
9460;BME280;4768;42.664;23.240;2023-04-15T07:33:42;170185.69;;;12.21;100.00
9460;BME280;4768;42.664;23.240;2023-04-15T07:36:09;170037.59;;;11.66;100.00
9460;BME280;4768;42.664;23.240;2023-04-15T07:38:35;170147.00;;;12.07;100.00
9460;BME280;4768;42.664;23.240;2023-04-15T07:41:02;170267.06;;;12.52;100.00
9460;BME280;4768;42.664;23.240;2023-04-15T07:43:31;170399.22;;;13.01;100.00
9460;BME280;4768;42.664;23.240;2023-04-15T07:45:57;170401.91;;;13.02;100.00
9460;BME280;4768;42.664;23.240;2023-04-15T07:48:24;170361.88;;;12.87;100.00
9460;BME280;4768;42.664;23.240;2023-04-15T07:50:51;170217.72;;;12.33;100.00
9460;BME280;4768;42.664;23.240;2023-04-15T07:53:18;170304.41;;;12.65;100.00
9460;BME280;4768;42.664;23.240;2023-04-15T07:55:44;170421.91;;;13.09;100.00
9460;BME280;4768;42.664;23.240;2023-04-15T07:58:11;170355.19;;;12.84;100.00
9460;BME280;4768;42.664;23.240;2023-04-15T08:00:39;170421.91;;;13.09;100.00
9460;BME280;4768;42.664;23.240;2023-04-15T08:03:06;170559.44;;;13.60;100.00
9460;BME280;4768;42.664;23.240;2023-04-15T08:05:33;170619.53;;;13.82;100.00
9460;BME280;4768;42.664;23.240;2023-04-15T08:07:59;170600.84;;;13.75;100.00
9460;BME280;4768;42.664;23.240;2023-04-15T08:10:28;170666.31;;;14.00;100.00
9460;BME280;4768;42.664;23.240;2023-04-15T08:12:55;170741.09;;;14.27;100.00
9460;BME280;4768;42.664;23.240;2023-04-15T08:15:21;170619.53;;;13.82;100.00
9460;BME280;4768;42.664;23.240;2023-04-15T08:17:50;170734.47;;;14.25;100.00
9460;BME280;4768;42.664;23.240;2023-04-15T08:20:16;170697.03;;;14.11;100.00
9460;BME280;4768;42.664;23.240;2023-04-15T08:22:44;170504.69;;;13.40;100.00
9460;BME280;4768;42.664;23.240;2023-04-15T08:25:12;170477.97;;;13.30;100.00
9460;BME280;4768;42.664;23.240;2023-04-15T08:27:39;170280.38;;;12.56;100.00
9460;BME280;4768;42.664;23.240;2023-04-15T08:30:07;170538.06;;;13.52;100.00
9460;BME280;4768;42.664;23.240;2023-04-15T08:32:34;170568.78;;;13.63;100.00
9460;BME280;4768;42.664;23.240;2023-04-15T08:35:02;170703.72;;;14.13;100.00
9460;BME280;4768;42.664;23.240;2023-04-15T08:37:29;170802.59;;;14.50;100.00
9460;BME280;4768;42.664;23.240;2023-04-15T08:39:56;170900.09;;;14.86;100.00
9460;BME280;4768;42.664;23.240;2023-04-15T08:42:26;170813.25;;;14.54;100.00
9460;BME280;4768;42.664;23.240;2023-04-15T08:44:58;170906.81;;;14.89;100.00
9460;BME280;4768;42.664;23.240;2023-04-15T08:47:28;170978.97;;;15.15;100.00
9460;BME280;4768;42.664;23.240;2023-04-15T08:49:56;171004.44;;;15.25;100.00
9460;BME280;4768;42.664;23.240;2023-04-15T08:52:25;170904.13;;;14.88;100.00
9460;BME280;4768;42.664;23.240;2023-04-15T08:54:56;170909.50;;;14.90;100.00
9460;BME280;4768;42.664;23.240;2023-04-15T08:57:25;170902.78;;;14.87;100.00
9460;BME280;4768;42.664;23.240;2023-04-15T08:59:52;170874.75;;;14.77;100.00
9460;BME280;4768;42.664;23.240;2023-04-15T09:02:20;170845.38;;;14.66;100.00
9460;BME280;4768;42.664;23.240;2023-04-15T09:04:47;170989.72;;;15.19;100.00
9460;BME280;4768;42.664;23.240;2023-04-15T09:07:14;170953.59;;;15.06;100.00
9460;BME280;4768;42.664;23.240;2023-04-15T09:09:42;171029.81;;;15.34;100.00
9460;BME280;4768;42.664;23.240;2023-04-15T09:12:10;170805.22;;;14.51;100.00
9460;BME280;4768;42.664;23.240;2023-04-15T09:14:38;170926.84;;;14.96;100.00
9460;BME280;4768;42.664;23.240;2023-04-15T09:17:09;170745.13;;;14.29;100.00
9460;BME280;4768;42.664;23.240;2023-04-15T09:19:36;170892.09;;;14.83;100.00
9460;BME280;4768;42.664;23.240;2023-04-15T09:22:03;170897.47;;;14.85;93.90
9460;BME280;4768;42.664;23.240;2023-04-15T09:24:35;170960.25;;;15.08;97.76
9460;BME280;4768;42.664;23.240;2023-04-15T09:27:04;170846.69;;;14.66;96.07
9460;BME280;4768;42.664;23.240;2023-04-15T09:29:31;170972.28;;;15.13;98.67
9460;BME280;4768;42.664;23.240;2023-04-15T09:32:08;170909.50;;;14.90;98.39
9460;BME280;4768;42.664;23.240;2023-04-15T09:34:35;170952.22;;;15.05;95.55
9460;BME280;4768;42.664;23.240;2023-04-15T09:37:02;171057.91;;;15.45;100.00
9460;BME280;4768;42.664;23.240;2023-04-15T09:39:44;170962.94;;;15.09;89.79
9460;BME280;4768;42.664;23.240;2023-04-15T09:42:12;170999.06;;;15.23;89.92
9460;BME280;4768;42.664;23.240;2023-04-15T09:44:39;170952.22;;;15.05;83.93
9460;BME280;4768;42.664;23.240;2023-04-15T09:47:06;170876.06;;;14.77;87.93
9460;BME280;4768;42.664;23.240;2023-04-15T09:49:32;170918.84;;;14.93;90.51
9460;BME280;4768;42.664;23.240;2023-04-15T09:52:00;170928.16;;;14.97;90.06
9460;BME280;4768;42.664;23.240;2023-04-15T09:54:35;170905.50;;;14.88;84.66
9460;BME280;4768;42.664;23.240;2023-04-15T09:57:06;170861.41;;;14.72;81.86
9460;BME280;4768;42.664;23.240;2023-04-15T09:59:35;170721.06;;;14.20;83.19
9460;BME280;4768;42.664;23.240;2023-04-15T10:02:03;170765.16;;;14.36;77.48
9460;BME280;4768;42.664;23.240;2023-04-15T10:04:32;170773.16;;;14.39;78.79
9460;BME280;4768;42.664;23.240;2023-04-15T10:07:02;170731.78;;;14.24;80.07
9460;BME280;4768;42.664;23.240;2023-04-15T10:09:30;170785.19;;;14.44;79.32
9460;BME280;4768;42.664;23.240;2023-04-15T10:11:57;170853.38;;;14.69;79.07
9460;BME280;4768;42.664;23.240;2023-04-15T10:14:27;170839.97;;;14.64;81.71
9460;BME280;4768;42.664;23.240;2023-04-15T10:17:00;170868.03;;;14.74;81.18
9460;BME280;4768;42.664;23.240;2023-04-15T10:19:30;170702.41;;;14.13;81.14
9460;BME280;4768;42.664;23.240;2023-04-15T10:21:59;170754.50;;;14.32;83.33
9460;BME280;4768;42.664;23.240;2023-04-15T10:24:26;170896.09;;;14.85;82.92
9460;BME280;4768;42.664;23.240;2023-04-15T10:26:53;170878.75;;;14.78;82.30
9460;BME280;4768;42.664;23.240;2023-04-15T10:29:22;170846.69;;;14.66;82.41
9460;BME280;4768;42.664;23.240;2023-04-15T10:31:50;170984.34;;;15.17;87.31
9460;BME280;4768;42.664;23.240;2023-04-15T10:34:20;171035.16;;;15.36;91.83
9460;BME280;4768;42.664;23.240;2023-04-15T10:36:48;171102.00;;;15.61;90.74
9460;BME280;4768;42.664;23.240;2023-04-15T10:39:37;170952.22;;;15.05;87.68
9460;BME280;4768;42.664;23.240;2023-04-15T10:42:08;171023.13;;;15.32;94.39
9460;BME280;4768;42.664;23.240;2023-04-15T10:44:35;170999.06;;;15.23;89.82
9460;BME280;4768;42.664;23.240;2023-04-15T10:47:09;171063.22;;;15.47;88.46
9460;BME280;4768;42.664;23.240;2023-04-15T10:49:48;171052.56;;;15.43;79.09
9460;BME280;4768;42.664;23.240;2023-04-15T10:52:16;170992.44;;;15.20;81.41
9460;BME280;4768;42.664;23.240;2023-04-15T10:54:43;171036.53;;;15.37;85.54
9460;BME280;4768;42.664;23.240;2023-04-15T10:57:15;171159.50;;;15.82;90.68
9460;BME280;4768;42.664;23.240;2023-04-15T11:00:01;171116.72;;;15.66;89.10
9460;BME280;4768;42.664;23.240;2023-04-15T11:02:44;171080.63;;;15.53;88.14
9460;BME280;4768;42.664;23.240;2023-04-15T11:05:14;171115.38;;;15.66;89.64
9460;BME280;4768;42.664;23.240;2023-04-15T11:07:51;171190.25;;;15.94;86.99
9460;BME280;4768;42.664;23.240;2023-04-15T11:10:51;171132.78;;;15.72;84.96
9460;BME280;4768;42.664;23.240;2023-04-15T11:13:23;171203.66;;;15.98;87.49
9460;BME280;4768;42.664;23.240;2023-04-15T11:15:55;171187.63;;;15.93;83.79
9460;BME280;4768;42.664;23.240;2023-04-15T11:18:24;171166.19;;;15.85;84.51
9460;BME280;4768;42.664;23.240;2023-04-15T11:20:55;171096.69;;;15.59;74.19
9460;BME280;4768;42.664;23.240;2023-04-15T11:23:27;171028.50;;;15.34;71.74
9460;BME280;4768;42.664;23.240;2023-04-15T11:25:55;171040.53;;;15.38;74.52
9460;BME280;4768;42.664;23.240;2023-04-15T11:28:24;171164.88;;;15.84;75.92
9460;BME280;4768;42.664;23.240;2023-04-15T11:30:51;171156.84;;;15.81;74.04
9460;BME280;4768;42.664;23.240;2023-04-15T11:33:18;171065.91;;;15.48;74.75
9460;BME280;4768;42.664;23.240;2023-04-15T11:35:45;171175.59;;;15.88;74.39
9460;BME280;4768;42.664;23.240;2023-04-15T11:38:13;171227.72;;;16.07;72.59
9460;BME280;4768;42.664;23.240;2023-04-15T11:40:41;171225.03;;;16.06;73.93
9460;BME280;4768;42.664;23.240;2023-04-15T11:43:10;171270.53;;;16.23;75.86
9460;BME280;4768;42.664;23.240;2023-04-15T11:45:47;171253.13;;;16.17;75.16
9460;BME280;4768;42.664;23.240;2023-04-15T11:48:16;171294.63;;;16.32;72.51
9460;BME280;4768;42.664;23.240;2023-04-15T11:50:43;171318.69;;;16.41;72.47
9460;BME280;4768;42.664;23.240;2023-04-15T11:53:11;171354.84;;;16.54;66.79
9460;BME280;4768;42.664;23.240;2023-04-15T11:55:43;171353.47;;;16.54;65.98
9460;BME280;4768;42.664;23.240;2023-04-15T11:58:12;171374.91;;;16.62;69.27
9460;BME280;4768;42.664;23.240;2023-04-15T12:00:44;171346.81;;;16.51;67.63
9460;BME280;4768;42.664;23.240;2023-04-15T12:03:13;171246.41;;;16.14;71.01
9460;BME280;4768;42.664;23.240;2023-04-15T12:06:09;171282.56;;;16.28;63.37
9460;BME280;4768;42.664;23.240;2023-04-15T12:08:54;171194.28;;;15.95;60.42
9460;BME280;4768;42.664;23.240;2023-04-15T12:11:29;171329.41;;;16.45;56.16
9460;BME280;4768;42.664;23.240;2023-04-15T12:13:57;171321.38;;;16.42;59.12
9460;BME280;4768;42.664;23.240;2023-04-15T12:16:26;171214.31;;;16.02;56.10
9460;BME280;4768;42.664;23.240;2023-04-15T12:18:55;171154.16;;;15.80;58.13
9460;BME280;4768;42.664;23.240;2023-04-15T12:21:24;171202.28;;;15.98;63.23
9460;BME280;4768;42.664;23.240;2023-04-15T12:23:52;171249.09;;;16.15;66.23
9460;BME280;4768;42.664;23.240;2023-04-15T12:26:26;171253.13;;;16.17;70.65
9460;BME280;4768;42.664;23.240;2023-04-15T12:28:53;171326.72;;;16.44;65.17
9460;BME280;4768;42.664;23.240;2023-04-15T12:31:21;171265.16;;;16.21;61.80
9460;BME280;4768;42.664;23.240;2023-04-15T12:33:49;171238.41;;;16.11;64.75
9460;BME280;4768;42.664;23.240;2023-04-15T12:36:16;171253.13;;;16.17;63.98
9460;BME280;4768;42.664;23.240;2023-04-15T12:38:42;171362.88;;;16.57;67.34
9460;BME280;4768;42.664;23.240;2023-04-15T12:41:09;171348.16;;;16.52;61.63
9460;BME280;4768;42.664;23.240;2023-04-15T12:43:37;171286.59;;;16.29;60.08
9460;BME280;4768;42.664;23.240;2023-04-15T12:46:04;171325.38;;;16.44;58.36
9460;BME280;4768;42.664;23.240;2023-04-15T12:48:32;171340.13;;;16.49;59.82
9460;BME280;4768;42.664;23.240;2023-04-15T12:50:59;171255.81;;;16.18;57.59
9460;BME280;4768;42.664;23.240;2023-04-15T12:53:26;171206.28;;;15.99;59.48
9460;BME280;4768;42.664;23.240;2023-04-15T12:55:53;171217.00;;;16.03;59.07
9460;BME280;4768;42.664;23.240;2023-04-15T12:58:20;171269.22;;;16.23;61.12
9460;BME280;4768;42.664;23.240;2023-04-15T13:00:49;171312.03;;;16.39;59.39
9460;BME280;4768;42.664;23.240;2023-04-15T13:03:16;171249.09;;;16.15;62.54
9460;BME280;4768;42.664;23.240;2023-04-15T13:05:42;171342.81;;;16.50;62.85
9460;BME280;4768;42.664;23.240;2023-04-15T13:08:09;171267.91;;;16.22;58.50